Time;durP1;ratioP1;P1;durP2;ratioP2;P2;SDS_P1;SDS_P2;PMS_P1;PMS_P2;Temp;Humidity;BMP_temperature;BMP_pressure;BME280_temperature;BME280_humidity;BME280_pressure;Samples;Min_cycle;Max_cycle;Signal;HPM_P1;HPM_P2
2022/03/07 00:01:32;;;;;;;35.50;19.35;;;;;;;2.50;52.46;100650.50;5024941;28;20034;-67
2022/03/07 00:03:57;;;;;;;37.28;19.95;;;;;;;2.55;52.50;100658.22;5028866;28;20261;-66
2022/03/07 00:06:23;;;;;;;32.15;19.65;;;;;;;2.55;52.31;100666.16;5026728;28;20029;-67
2022/03/07 00:08:49;;;;;;;32.10;17.90;;;;;;;2.43;52.40;100647.28;5023648;28;20551;-67
2022/03/07 00:11:16;;;;;;;38.45;20.38;;;;;;;2.51;52.61;100667.25;5026475;28;20030;-67
2022/03/07 00:13:42;;;;;;;32.90;18.65;;;;;;;2.46;52.86;100672.78;5027839;28;20021;-70
2022/03/07 00:16:08;;;;;;;32.97;18.67;;;;;;;2.41;52.92;100666.84;5036086;28;20025;-71
2022/03/07 00:18:34;;;;;;;31.30;17.35;;;;;;;2.42;52.80;100665.06;5043505;28;20492;-69
2022/03/07 00:20:59;;;;;;;35.15;19.35;;;;;;;2.34;53.19;100660.13;5037687;28;20034;-70
2022/03/07 00:23:25;;;;;;;33.05;18.13;;;;;;;2.35;53.22;100662.72;5035055;28;20524;-67
2022/03/07 00:25:50;;;;;;;34.35;18.58;;;;;;;2.33;53.53;100659.28;5034089;28;20478;-66
2022/03/07 00:28:16;;;;;;;35.47;19.27;;;;;;;2.32;53.59;100662.00;5032047;28;20025;-67
2022/03/07 00:30:42;;;;;;;37.50;18.70;;;;;;;2.29;53.76;100663.00;5024723;28;20045;-67
2022/03/07 00:33:08;;;;;;;34.55;19.15;;;;;;;2.21;53.72;100656.38;5026992;28;20132;-66
2022/03/07 00:35:33;;;;;;;35.17;18.88;;;;;;;2.21;54.24;100662.53;5023352;28;20150;-66
2022/03/07 00:37:59;;;;;;;38.55;18.98;;;;;;;2.18;54.16;100664.47;5033715;28;20033;-65
2022/03/07 00:40:24;;;;;;;38.33;19.65;;;;;;;2.19;54.09;100676.75;5024403;28;20521;-66
2022/03/07 00:42:50;;;;;;;33.90;19.23;;;;;;;2.09;54.28;100665.75;5021918;28;20029;-65
2022/03/07 00:45:15;;;;;;;35.05;18.80;;;;;;;2.15;54.65;100672.53;5027022;28;20037;-66
2022/03/07 00:47:41;;;;;;;36.72;20.08;;;;;;;2.08;54.48;100665.84;5026004;28;20113;-66
2022/03/07 00:50:07;;;;;;;38.38;19.98;;;;;;;2.01;54.59;100667.06;5030220;28;20029;-66
2022/03/07 00:52:33;;;;;;;38.58;20.15;;;;;;;2.04;54.63;100675.69;5022871;28;20033;-66
2022/03/07 00:54:58;;;;;;;38.05;19.52;;;;;;;2.01;54.64;100675.88;5024782;28;20497;-66
2022/03/07 00:57:24;;;;;;;36.28;19.00;;;;;;;1.94;54.91;100674.41;5036321;28;20110;-69
2022/03/07 00:59:49;;;;;;;38.42;19.42;;;;;;;1.90;55.22;100675.50;5031042;28;20064;-69
2022/03/07 01:02:15;;;;;;;35.20;18.73;;;;;;;1.85;55.56;100677.50;5031423;28;20466;-69
2022/03/07 01:04:41;;;;;;;34.95;18.77;;;;;;;1.84;55.64;100678.41;5036132;28;20037;-69
2022/03/07 01:07:08;;;;;;;35.50;18.48;;;;;;;1.81;55.60;100675.06;5039243;28;20021;-69
2022/03/07 01:09:34;;;;;;;38.08;19.88;;;;;;;1.71;55.74;100666.69;5039537;28;20034;-69
2022/03/07 01:11:59;;;;;;;36.25;19.52;;;;;;;1.71;56.13;100669.34;5028755;28;20036;-70
2022/03/07 01:14:25;;;;;;;40.30;21.33;;;;;;;1.67;55.93;100673.06;5040216;28;20068;-69
2022/03/07 01:16:50;;;;;;;40.97;21.13;;;;;;;1.62;55.98;100671.56;5037386;28;20021;-69
2022/03/07 01:19:16;;;;;;;44.50;21.65;;;;;;;1.64;56.59;100682.91;5034248;28;20033;-69
2022/03/07 01:21:41;;;;;;;46.75;23.15;;;;;;;1.65;56.35;100689.94;5036107;28;20021;-69
2022/03/07 01:24:07;;;;;;;40.67;21.23;;;;;;;1.53;56.82;100672.84;5041322;28;21715;-69
2022/03/07 01:26:33;;;;;;;37.35;19.33;;;;;;;1.57;56.80;100678.81;5034728;28;20158;-69
2022/03/07 01:28:59;;;;;;;34.78;19.30;;;;;;;1.56;56.72;100675.34;5033129;28;20155;-69
2022/03/07 01:31:24;;;;;;;33.17;18.73;;;;;;;1.55;56.90;100670.97;5032277;28;20124;-69
2022/03/07 01:33:50;;;;;;;35.17;18.27;;;;;;;1.62;56.39;100674.19;5034976;28;20036;-69
2022/03/07 01:36:15;;;;;;;32.95;16.70;;;;;;;1.55;56.65;100668.31;5031740;28;20021;-69
2022/03/07 01:38:41;;;;;;;39.63;18.70;;;;;;;1.62;56.34;100690.06;5033767;28;20033;-69
2022/03/07 01:41:06;;;;;;;33.55;18.52;;;;;;;1.61;56.79;100677.78;5043582;28;20048;-69
2022/03/07 01:43:32;;;;;;;34.63;17.65;;;;;;;1.54;56.87;100671.03;5036956;28;20037;-69
2022/03/07 01:45:57;;;;;;;37.53;19.67;;;;;;;1.52;57.08;100670.28;5038247;28;20033;-69
2022/03/07 01:48:23;;;;;;;38.67;19.15;;;;;;;1.48;57.36;100668.69;5037683;28;20028;-69
2022/03/07 01:50:48;;;;;;;33.45;17.33;;;;;;;1.53;57.47;100672.84;5035859;28;20074;-69
2022/03/07 01:53:14;;;;;;;31.98;16.92;;;;;;;1.51;57.04;100666.75;5037223;28;20367;-69
2022/03/07 01:55:40;;;;;;;39.70;19.33;;;;;;;1.52;57.45;100671.09;5037637;28;20139;-69
2022/03/07 01:58:05;;;;;;;35.85;18.27;;;;;;;1.47;57.16;100678.41;5029945;28;20025;-69
2022/03/07 02:00:31;;;;;;;36.90;19.35;;;;;;;1.37;57.45;100669.16;5029486;28;20037;-69
2022/03/07 02:02:57;;;;;;;33.42;17.80;;;;;;;1.29;57.75;100655.44;5029809;28;20041;-69
2022/03/07 02:05:23;;;;;;;35.08;18.27;;;;;;;1.29;57.77;100665.16;5037651;28;20025;-69
2022/03/07 02:07:48;;;;;;;32.88;17.40;;;;;;;1.22;58.11;100653.13;5033301;28;20051;-69
2022/03/07 02:10:14;;;;;;;32.67;18.08;;;;;;;1.17;58.29;100661.28;5033689;28;20020;-69
2022/03/07 02:12:40;;;;;;;34.20;17.58;;;;;;;1.21;58.38;100667.28;5031298;28;20090;-69
2022/03/07 02:15:07;;;;;;;33.33;18.13;;;;;;;1.11;58.32;100656.28;5036977;28;20032;-69
2022/03/07 02:17:33;;;;;;;31.98;17.73;;;;;;;1.01;58.23;100652.31;5034724;28;20025;-69
2022/03/07 02:19:58;;;;;;;35.88;19.10;;;;;;;1.09;58.95;100678.34;5028644;28;20036;-69
2022/03/07 02:22:24;;;;;;;38.28;19.05;;;;;;;1.04;58.76;100672.44;5041100;28;20513;-69
2022/03/07 02:24:49;;;;;;;35.42;19.27;;;;;;;1.01;59.06;100669.94;5039236;28;20034;-69
2022/03/07 02:27:18;;;;;;;38.97;19.10;;;;;;;0.92;58.92;100663.28;5038366;28;20036;-69
2022/03/07 02:29:45;;;;;;;33.03;18.17;;;;;;;0.97;58.89;100674.47;5041969;28;20085;-69
2022/03/07 02:32:11;;;;;;;36.22;18.42;;;;;;;0.88;58.88;100656.41;5035658;28;20462;-69
2022/03/07 02:34:37;;;;;;;38.17;18.95;;;;;;;0.91;59.03;100661.56;5035323;28;20170;-69
2022/03/07 02:37:03;;;;;;;41.78;18.67;;;;;;;0.95;58.95;100672.81;5031776;28;20091;-69
2022/03/07 02:39:28;;;;;;;39.72;20.73;;;;;;;0.90;59.04;100661.63;5036664;28;20140;-69
2022/03/07 02:41:55;;;;;;;42.33;21.17;;;;;;;0.92;59.26;100671.19;5035915;28;20030;-69
2022/03/07 02:44:21;;;;;;;38.88;22.25;;;;;;;0.90;59.12;100666.91;5032730;28;20382;-69
2022/03/07 02:46:46;;;;;;;43.00;24.63;;;;;;;0.90;59.00;100669.53;5041317;28;20036;-69
2022/03/07 02:49:11;;;;;;;42.45;22.40;;;;;;;0.89;59.34;100670.44;5032488;28;20041;-69
2022/03/07 02:51:37;;;;;;;39.83;20.88;;;;;;;0.87;59.09;100665.22;5031851;28;20028;-69
2022/03/07 02:54:03;;;;;;;36.92;19.52;;;;;;;0.87;59.03;100674.97;5032852;28;20021;-69
2022/03/07 02:56:28;;;;;;;33.67;18.13;;;;;;;0.86;59.01;100671.44;5033887;28;20038;-69
2022/03/07 02:58:54;;;;;;;31.35;16.20;;;;;;;0.87;59.08;100669.69;5036232;28;20042;-69
2022/03/07 03:01:19;;;;;;;35.75;16.90;;;;;;;0.91;59.30;100681.81;5043232;28;20400;-69
2022/03/07 03:03:45;;;;;;;32.75;16.10;;;;;;;0.89;59.14;100678.38;5035226;28;20045;-69
2022/03/07 03:06:11;;;;;;;38.35;18.60;;;;;;;0.90;59.43;100680.94;5038701;28;20074;-69
2022/03/07 03:08:36;;;;;;;35.17;16.50;;;;;;;0.85;59.32;100669.75;5037017;28;20104;-69
2022/03/07 03:11:02;;;;;;;35.22;17.00;;;;;;;0.89;59.64;100671.31;5038047;28;20032;-69
2022/03/07 03:13:28;;;;;;;34.55;17.85;;;;;;;0.80;59.21;100655.88;5038829;28;20024;-69
2022/03/07 03:15:54;;;;;;;28.23;15.85;;;;;;;0.86;59.30;100660.88;5041982;28;20029;-69
2022/03/07 03:18:21;;;;;;;37.00;16.38;;;;;;;0.89;59.23;100666.03;5042358;28;20029;-69
2022/03/07 03:20:49;;;;;;;29.58;16.50;;;;;;;0.86;59.28;100660.88;5043007;28;20041;-69
2022/03/07 03:23:15;;;;;;;33.83;17.33;;;;;;;0.93;59.25;100682.63;5036630;28;20025;-69
2022/03/07 03:25:40;;;;;;;34.38;17.00;;;;;;;0.89;59.44;100683.66;5043871;28;20029;-69
2022/03/07 03:28:06;;;;;;;29.63;15.57;;;;;;;0.86;59.44;100683.78;5033465;28;20056;-69
2022/03/07 03:30:32;;;;;;;29.38;17.20;;;;;;;0.89;59.31;100689.78;5036581;28;20041;-69
2022/03/07 03:32:58;;;;;;;30.17;16.63;;;;;;;0.89;59.78;100697.72;5038417;28;20022;-69
2022/03/07 03:35:23;;;;;;;25.98;14.93;;;;;;;0.92;59.66;100692.31;5038120;28;20112;-69
2022/03/07 03:37:49;;;;;;;31.38;15.77;;;;;;;0.90;59.35;100691.50;5036728;28;20032;-69
2022/03/07 03:40:15;;;;;;;29.45;15.35;;;;;;;0.87;59.56;100686.34;5032635;28;20041;-69
2022/03/07 03:42:40;;;;;;;27.65;14.55;;;;;;;0.88;59.40;100684.59;5037285;28;20034;-69
2022/03/07 03:45:08;;;;;;;32.08;16.17;;;;;;;0.90;59.66;100691.50;5037337;28;20446;-69
2022/03/07 03:47:38;;;;;;;31.67;15.20;;;;;;;0.92;59.52;100694.94;5040442;28;20029;-69
2022/03/07 03:50:06;;;;;;;24.48;13.93;;;;;;;0.90;59.74;100690.66;5038747;28;20027;-69
2022/03/07 03:52:32;;;;;;;28.95;15.90;;;;;;;0.91;59.95;100693.25;5037100;28;20106;-69
2022/03/07 03:54:57;;;;;;;23.58;14.25;;;;;;;0.88;59.72;100684.59;5048068;28;20033;-69
2022/03/07 03:57:23;;;;;;;31.38;14.75;;;;;;;0.82;59.80;100679.56;5043285;28;20018;-69
2022/03/07 03:59:50;;;;;;;27.98;14.50;;;;;;;0.90;59.95;100694.16;5034886;28;20469;-69
2022/03/07 04:02:16;;;;;;;23.88;14.65;;;;;;;0.91;60.21;100684.47;5040200;28;20026;-70
2022/03/07 04:04:42;;;;;;;26.88;14.10;;;;;;;0.92;60.22;100686.16;5040825;28;20514;-70
2022/03/07 04:07:07;;;;;;;26.23;14.82;;;;;;;0.83;59.97;100670.69;5035707;28;20358;-69
2022/03/07 04:09:33;;;;;;;26.30;14.40;;;;;;;0.97;59.88;100692.13;5028884;28;20040;-69
2022/03/07 04:11:59;;;;;;;27.75;15.32;;;;;;;0.94;60.09;100679.91;5036606;28;20033;-69
2022/03/07 04:14:24;;;;;;;28.33;15.80;;;;;;;0.98;60.36;100694.69;5042276;28;20067;-69
2022/03/07 04:16:50;;;;;;;28.73;16.27;;;;;;;0.96;60.15;100687.75;5037496;28;20710;-69
2022/03/07 04:19:15;;;;;;;27.85;15.80;;;;;;;0.96;60.19;100690.38;5043079;28;20029;-69
2022/03/07 04:21:41;;;;;;;24.42;14.98;;;;;;;0.98;60.04;100691.19;5038841;28;20025;-69
2022/03/07 04:24:08;;;;;;;28.45;15.27;;;;;;;0.98;59.81;100689.41;5039730;28;20142;-69
2022/03/07 04:26:34;;;;;;;32.17;15.93;;;;;;;0.99;59.76;100696.41;5035087;28;20044;-69
2022/03/07 04:29:00;;;;;;;29.92;15.77;;;;;;;1.00;59.73;100692.81;5044012;28;20029;-69
2022/03/07 04:31:27;;;;;;;28.98;15.48;;;;;;;1.00;59.92;100697.28;5043846;28;20025;-69
2022/03/07 04:33:52;;;;;;;27.85;14.98;;;;;;;0.97;59.58;100690.31;5040465;28;20059;-69
2022/03/07 04:36:21;;;;;;;26.35;14.60;;;;;;;0.99;59.78;100696.41;5034491;28;20274;-65
2022/03/07 04:38:47;;;;;;;26.08;14.48;;;;;;;0.88;59.51;100669.63;5028302;28;20525;-65
2022/03/07 04:41:12;;;;;;;30.00;14.68;;;;;;;0.98;59.40;100686.78;5029658;28;20033;-65
2022/03/07 04:43:38;;;;;;;24.75;14.07;;;;;;;0.98;59.58;100686.78;5025127;28;20044;-66
2022/03/07 04:46:07;;;;;;;26.63;14.45;;;;;;;0.94;59.58;100690.47;5025079;28;20044;-66
2022/03/07 04:48:32;;;;;;;25.67;14.57;;;;;;;0.86;59.82;100676.72;5024499;28;20402;-65
2022/03/07 04:50:58;;;;;;;26.58;14.10;;;;;;;0.91;59.95;100692.38;5025801;28;20029;-66
2022/03/07 04:53:23;;;;;;;24.48;13.82;;;;;;;0.85;59.81;100690.88;5023544;28;20036;-65
2022/03/07 04:55:49;;;;;;;31.20;14.90;;;;;;;0.80;60.05;100679.63;5037453;28;20033;-66
2022/03/07 04:58:14;;;;;;;24.02;14.63;;;;;;;0.79;60.13;100679.69;5033450;28;20029;-65
2022/03/07 05:00:40;;;;;;;24.90;13.85;;;;;;;0.78;59.72;100680.63;5023451;28;20060;-65
2022/03/07 05:03:05;;;;;;;27.38;14.70;;;;;;;0.72;59.84;100675.59;5024185;28;20469;-65
2022/03/07 05:05:31;;;;;;;29.45;14.48;;;;;;;0.63;59.90;100663.66;5023782;28;20072;-65
2022/03/07 05:07:56;;;;;;;25.75;15.05;;;;;;;0.65;59.84;100676.78;5029722;28;20716;-66
2022/03/07 05:10:22;;;;;;;33.25;15.73;;;;;;;0.70;60.24;100683.56;5021416;28;20132;-65
2022/03/07 05:12:48;;;;;;;41.72;19.10;;;;;;;0.61;59.97;100670.75;5025804;28;20032;-65
2022/03/07 05:15:14;;;;;;;45.40;20.27;;;;;;;0.59;60.24;100679.66;5023059;28;20025;-65
2022/03/07 05:17:44;;;;;;;48.58;21.23;;;;;;;0.64;60.18;100694.38;5025863;28;20083;-65
2022/03/07 05:20:11;;;;;;;52.80;22.40;;;;;;;0.60;60.58;100686.66;5022097;28;20025;-66
2022/03/07 05:22:38;;;;;;;40.20;18.25;;;;;;;0.60;60.71;100691.94;5023639;28;20041;-66
2022/03/07 05:25:05;;;;;;;37.05;16.67;;;;;;;0.56;60.44;100688.56;5025996;28;20038;-66
2022/03/07 05:27:30;;;;;;;29.67;15.60;;;;;;;0.55;60.45;100686.00;5025710;28;20038;-66
2022/03/07 05:29:56;;;;;;;28.35;16.02;;;;;;;0.54;60.40;100693.03;5024608;28;20378;-66
2022/03/07 05:32:21;;;;;;;31.02;15.95;;;;;;;0.56;60.36;100696.50;5026638;28;20461;-66
2022/03/07 05:34:46;;;;;;;25.73;13.98;;;;;;;0.58;60.39;100701.72;5031138;28;20139;-66
2022/03/07 05:37:12;;;;;;;30.83;14.40;;;;;;;0.57;60.52;100697.34;5022489;28;20087;-66
2022/03/07 05:39:37;;;;;;;27.13;13.95;;;;;;;0.51;60.37;100689.69;5019301;28;20076;-67
2022/03/07 05:42:03;;;;;;;35.47;16.10;;;;;;;0.57;60.58;100703.47;5032233;28;20458;-66
2022/03/07 05:44:29;;;;;;;27.65;15.85;;;;;;;0.58;60.09;100705.19;5029627;28;20035;-66
2022/03/07 05:46:54;;;;;;;29.83;15.93;;;;;;;0.58;60.30;100707.00;5031129;28;20025;-66
2022/03/07 05:49:19;;;;;;;28.98;14.05;;;;;;;0.59;60.30;100706.94;5023650;28;20031;-66
2022/03/07 05:51:46;;;;;;;24.70;13.25;;;;;;;0.56;60.19;100699.13;5026352;28;20072;-66
2022/03/07 05:54:11;;;;;;;25.35;12.95;;;;;;;0.57;60.07;100692.06;5026377;28;20032;-66
2022/03/07 05:56:37;;;;;;;25.27;13.25;;;;;;;0.56;60.14;100685.06;5028166;28;20045;-66
2022/03/07 05:59:02;;;;;;;28.95;13.52;;;;;;;0.53;60.02;100688.69;5021695;28;20029;-66
2022/03/07 06:01:28;;;;;;;40.60;17.10;;;;;;;0.60;60.13;100700.72;5028532;28;20029;-66
2022/03/07 06:03:53;;;;;;;70.47;25.13;;;;;;;0.67;60.34;100694.25;5016125;28;20033;-66
2022/03/07 06:06:20;;;;;;;65.65;24.20;;;;;;;0.75;59.95;100700.09;5029077;28;20049;-66
2022/03/07 06:08:45;;;;;;;46.72;18.98;;;;;;;0.65;60.23;100690.84;5027969;28;20028;-66
2022/03/07 06:11:11;;;;;;;37.72;16.98;;;;;;;0.70;60.14;100702.03;5039339;28;20064;-67
2022/03/07 06:13:37;;;;;;;36.60;16.10;;;;;;;0.68;60.14;100703.03;5016628;28;20398;-67
2022/03/07 06:16:02;;;;;;;28.45;14.98;;;;;;;0.77;59.79;100716.69;5027068;28;20124;-67
2022/03/07 06:18:28;;;;;;;34.67;18.58;;;;;;;0.74;60.42;100706.28;5029521;28;20509;-67
2022/03/07 06:20:54;;;;;;;55.28;21.80;;;;;;;0.84;60.50;100712.03;5027814;28;20044;-67
2022/03/07 06:23:19;;;;;;;46.25;20.13;;;;;;;0.87;60.04;100710.13;5010009;28;20021;-66
2022/03/07 06:25:45;;;;;;;59.63;19.00;;;;;;;0.91;60.12;100713.50;5023114;28;20040;-66
2022/03/07 06:28:11;;;;;;;40.53;17.73;;;;;;;0.94;59.76;100702.81;5020894;28;20491;-66
2022/03/07 06:30:36;;;;;;;28.58;14.38;;;;;;;1.01;59.85;100715.69;5016643;28;20037;-66
2022/03/07 06:33:02;;;;;;;25.60;13.15;;;;;;;1.09;59.64;100716.19;5036541;28;20563;-66
2022/03/07 06:35:28;;;;;;;27.88;14.05;;;;;;;1.15;59.75;100715.06;5031813;28;20041;-67
2022/03/07 06:37:53;;;;;;;30.00;14.68;;;;;;;1.15;59.11;100704.50;5021072;28;20022;-67
2022/03/07 06:40:20;;;;;;;28.35;14.40;;;;;;;1.27;59.07;100719.84;5028038;28;20624;-66
2022/03/07 06:42:49;;;;;;;27.88;14.27;;;;;;;1.32;59.13;100710.78;5028198;28;20025;-67
2022/03/07 06:45:16;;;;;;;25.15;13.23;;;;;;;1.40;58.87;100721.00;5026911;28;20362;-67
2022/03/07 06:47:44;;;;;;;26.17;13.43;;;;;;;1.38;58.38;100710.50;5020874;28;20690;-68
2022/03/07 06:50:10;;;;;;;23.05;13.23;;;;;;;1.59;58.61;100729.84;5037656;28;20386;-72
2022/03/07 06:52:35;;;;;;;29.05;13.40;;;;;;;1.52;57.88;100704.63;5043766;28;20116;-71
2022/03/07 06:55:02;;;;;;;26.55;13.95;;;;;;;1.69;57.53;100728.50;5039886;28;20320;-72
2022/03/07 06:57:27;;;;;;;34.35;15.05;;;;;;;1.66;57.60;100716.28;5033456;28;20416;-71
2022/03/07 06:59:53;;;;;;;23.65;13.93;;;;;;;1.76;57.30;100725.53;5040258;28;20025;-71
2022/03/07 07:02:18;;;;;;;27.80;13.23;;;;;;;1.79;56.61;100724.50;5037938;28;20374;-71
2022/03/07 07:04:44;;;;;;;20.33;11.50;;;;;;;1.81;56.17;100723.50;5039314;28;20112;-72
2022/03/07 07:07:10;;;;;;;28.42;11.95;;;;;;;1.88;55.90;100729.38;5038934;28;20032;-72
2022/03/07 07:09:36;;;;;;;25.90;11.85;;;;;;;1.93;55.57;100732.66;5037299;28;20029;-72
2022/03/07 07:12:01;;;;;;;25.33;12.77;;;;;;;1.98;55.98;100736.84;5044791;28;20040;-72
2022/03/07 07:14:27;;;;;;;23.08;11.73;;;;;;;2.00;55.24;100742.88;5036230;28;20043;-71
2022/03/07 07:16:52;;;;;;;24.13;12.35;;;;;;;2.08;55.22;100748.69;5038015;28;20029;-71
2022/03/07 07:19:19;;;;;;;23.02;11.98;;;;;;;2.09;54.82;100745.13;5041086;28;20022;-72
2022/03/07 07:21:44;;;;;;;20.85;11.98;;;;;;;2.20;54.70;100750.75;5042425;28;20043;-72
2022/03/07 07:24:10;;;;;;;17.70;11.10;;;;;;;2.25;53.86;100747.91;5035714;28;20025;-72
2022/03/07 07:26:35;;;;;;;18.17;11.18;;;;;;;2.24;53.69;100746.19;5043835;28;20151;-72
2022/03/07 07:29:01;;;;;;;22.58;12.07;;;;;;;2.28;53.56;100753.03;5051202;28;20025;-72
2022/03/07 07:31:27;;;;;;;22.58;13.02;;;;;;;2.36;53.57;100753.56;5046155;28;20612;-72
2022/03/07 07:33:52;;;;;;;21.52;12.52;;;;;;;2.38;53.54;100754.31;5038645;28;20057;-72
2022/03/07 07:36:17;;;;;;;22.98;12.98;;;;;;;2.47;52.82;100766.25;5045940;28;20033;-72
2022/03/07 07:38:43;;;;;;;25.63;13.73;;;;;;;2.46;52.69;100760.13;5036960;28;20033;-72
2022/03/07 07:41:10;;;;;;;23.63;12.93;;;;;;;2.48;52.60;100750.31;5038834;28;20037;-72
2022/03/07 07:43:35;;;;;;;20.67;11.30;;;;;;;2.56;52.18;100758.75;5036655;28;20032;-72
2022/03/07 07:46:01;;;;;;;19.50;11.40;;;;;;;2.63;51.77;100757.53;5043323;28;20477;-72
2022/03/07 07:48:26;;;;;;;19.80;10.95;;;;;;;2.67;51.30;100771.47;5048785;28;20114;-72
2022/03/07 07:50:52;;;;;;;20.70;11.32;;;;;;;2.72;51.21;100767.66;5047668;28;20389;-72
2022/03/07 07:53:17;;;;;;;23.25;11.00;;;;;;;2.77;50.80;100764.81;5040111;28;20100;-72
2022/03/07 07:55:43;;;;;;;15.77;10.32;;;;;;;2.81;50.45;100766.38;5038462;28;20031;-72
2022/03/07 07:58:08;;;;;;;19.67;11.95;;;;;;;2.87;50.30;100750.16;5040638;28;20110;-72
2022/03/07 08:00:34;;;;;;;17.75;9.80;;;;;;;2.88;50.35;100754.53;5047130;28;20029;-72
2022/03/07 08:02:59;;;;;;;18.70;10.85;;;;;;;2.95;49.99;100766.53;5037034;28;20033;-72
2022/03/07 08:05:25;;;;;;;23.48;10.90;;;;;;;3.01;49.56;100758.28;5042134;28;20029;-72
2022/03/07 08:07:50;;;;;;;16.13;9.80;;;;;;;3.01;49.57;100742.38;5046212;28;20075;-72
2022/03/07 08:10:17;;;;;;;18.45;10.95;;;;;;;3.11;49.26;100755.09;5043106;28;20027;-72
2022/03/07 08:12:44;;;;;;;22.90;10.98;;;;;;;3.13;49.74;100755.03;5037630;28;20401;-72
2022/03/07 08:15:13;;;;;;;18.63;9.73;;;;;;;3.18;48.89;100750.31;5034906;28;20033;-72
2022/03/07 08:17:43;;;;;;;15.55;9.50;;;;;;;3.18;48.55;100737.09;5037743;28;20037;-72
2022/03/07 08:20:09;;;;;;;20.83;10.10;;;;;;;3.32;48.08;100756.63;5040315;28;20112;-72
2022/03/07 08:22:35;;;;;;;22.45;10.38;;;;;;;3.36;47.48;100739.66;5041815;28;20048;-72
2022/03/07 08:25:00;;;;;;;17.70;10.27;;;;;;;3.30;47.80;100723.22;5037390;28;20401;-72
2022/03/07 08:27:26;;;;;;;19.30;11.07;;;;;;;3.44;47.56;100745.41;5044787;28;20104;-72
2022/03/07 08:29:51;;;;;;;20.98;11.25;;;;;;;3.48;47.28;100746.13;5040613;28;20029;-72
2022/03/07 08:32:17;;;;;;;16.33;10.55;;;;;;;3.56;47.24;100751.88;5038316;28;20453;-72
2022/03/07 08:34:42;;;;;;;15.68;10.00;;;;;;;3.55;46.91;100747.53;5038745;28;20021;-72
2022/03/07 08:37:08;;;;;;;33.80;11.73;;;;;;;3.61;46.92;100747.19;5036637;28;20030;-72
2022/03/07 08:39:33;;;;;;;19.08;11.18;;;;;;;3.62;47.05;100746.25;5043544;28;20087;-72
2022/03/07 08:41:59;;;;;;;17.73;10.13;;;;;;;3.78;46.35;100753.28;5044862;28;20730;-72
2022/03/07 08:44:25;;;;;;;17.02;11.15;;;;;;;3.76;46.73;100754.31;5039419;28;20049;-72
2022/03/07 08:46:50;;;;;;;17.25;10.40;;;;;;;3.77;46.46;100756.91;5039769;28;20074;-72
2022/03/07 08:49:15;;;;;;;20.83;11.15;;;;;;;3.79;46.64;100765.66;5031954;28;20017;-73
2022/03/07 08:51:43;;;;;;;16.40;10.30;;;;;;;3.81;46.91;100760.25;5039873;28;20083;-72
2022/03/07 08:54:10;;;;;;;19.45;10.90;;;;;;;3.76;46.60;100746.38;5050429;28;20763;-72
2022/03/07 08:56:35;;;;;;;18.40;9.93;;;;;;;3.85;46.36;100761.81;5038386;28;20059;-72
2022/03/07 08:59:02;;;;;;;19.05;10.10;;;;;;;3.84;46.65;100757.44;5040703;28;20060;-73
2022/03/07 09:01:27;;;;;;;15.60;9.77;;;;;;;3.80;46.28;100742.59;5039089;28;20071;-72
2022/03/07 09:03:53;;;;;;;17.13;10.35;;;;;;;3.89;46.25;100763.34;5033448;28;20025;-72
2022/03/07 09:06:18;;;;;;;17.70;11.13;;;;;;;3.90;46.47;100755.31;5035364;28;20021;-72
2022/03/07 09:08:44;;;;;;;23.40;13.43;;;;;;;3.91;46.20;100756.19;5037678;28;20036;-72
2022/03/07 09:11:09;;;;;;;28.75;13.95;;;;;;;3.90;46.51;100751.81;5035011;28;20041;-72
2022/03/07 09:13:35;;;;;;;19.63;12.80;;;;;;;3.98;46.41;100754.91;5037112;28;20044;-72
2022/03/07 09:16:00;;;;;;;17.40;11.27;;;;;;;4.02;46.13;100753.78;5028915;28;20075;-72
2022/03/07 09:18:27;;;;;;;19.63;11.82;;;;;;;4.08;46.03;100756.13;5043218;28;20059;-72
2022/03/07 09:20:54;;;;;;;21.17;11.18;;;;;;;4.08;46.06;100753.47;5035294;28;20032;-72
2022/03/07 09:23:20;;;;;;;19.50;11.45;;;;;;;4.07;45.64;100751.75;5038436;28;20044;-72
2022/03/07 09:25:45;;;;;;;22.13;10.77;;;;;;;4.12;45.46;100755.88;5027636;28;20405;-72
2022/03/07 09:28:11;;;;;;;19.98;11.13;;;;;;;4.13;45.14;100756.72;5041040;28;20025;-72
2022/03/07 09:30:36;;;;;;;19.55;11.45;;;;;;;4.12;44.95;100753.22;5039751;28;20021;-72
2022/03/07 09:33:03;;;;;;;17.52;10.60;;;;;;;4.23;44.86;100761.44;5034579;28;20032;-72
2022/03/07 09:35:30;;;;;;;18.83;12.20;;;;;;;4.24;45.14;100765.81;5033352;28;20050;-72
2022/03/07 09:37:56;;;;;;;25.42;12.40;;;;;;;4.20;45.11;100755.44;5032636;28;20017;-68
2022/03/07 09:40:21;;;;;;;22.45;12.77;;;;;;;4.26;45.17;100757.78;5028006;28;20410;-68
2022/03/07 09:42:48;;;;;;;19.40;11.85;;;;;;;4.29;45.17;100753.13;5026859;28;20029;-68
2022/03/07 09:45:13;;;;;;;20.70;11.65;;;;;;;4.33;45.27;100748.53;5028311;28;20022;-68
2022/03/07 09:47:40;;;;;;;19.60;12.15;;;;;;;4.37;45.24;100750.06;5024244;28;20037;-68
2022/03/07 09:50:08;;;;;;;19.42;12.68;;;;;;;4.39;45.12;100738.41;5026726;28;20478;-68
2022/03/07 09:52:34;;;;;;;21.98;11.32;;;;;;;4.52;44.77;100739.44;5027849;28;20398;-67
2022/03/07 09:55:00;;;;;;;19.20;12.70;;;;;;;4.56;44.84;100742.78;5030844;28;20044;-68
2022/03/07 09:57:25;;;;;;;20.75;12.18;;;;;;;4.61;44.55;100735.38;5040613;28;20028;-67
2022/03/07 09:59:51;;;;;;;20.35;12.20;;;;;;;4.66;44.43;100736.00;5026312;28;20025;-68
2022/03/07 10:02:22;;;;;;;22.52;12.65;;;;;;;4.69;44.33;100727.84;5043665;28;20025;-68
2022/03/07 10:04:48;;;;;;;22.90;12.52;;;;;;;4.78;43.97;100727.34;5033554;28;20098;-68
2022/03/07 10:07:14;;;;;;;21.73;13.82;;;;;;;4.85;44.23;100734.00;5026946;28;20025;-68
2022/03/07 10:09:39;;;;;;;18.88;12.60;;;;;;;4.90;43.93;100725.78;5027936;28;20699;-68
2022/03/07 10:12:06;;;;;;;26.60;14.38;;;;;;;4.96;43.57;100728.91;5032375;28;20029;-68
2022/03/07 10:14:46;;;;;;;23.13;13.77;;;;;;;4.94;44.24;100711.34;5039755;28;20398;-68
2022/03/07 10:17:31;;;;;;;20.50;12.88;;;;;;;5.05;44.02;100731.03;5027753;28;20030;-67
2022/03/07 10:19:57;;;;;;;;;;;;;;;5.16;44.00;100731.25;5027135;28;20381;-67
2022/03/07 10:22:27;;;;;;;22.75;14.00;;;;;;;5.23;44.16;100729.97;5027110;28;20007;-67
2022/03/07 10:25:05;;;;;;;22.05;13.95;;;;;;;5.32;43.64;100718.75;5034983;28;20404;-67
2022/03/07 10:27:37;;;;;;;23.17;15.30;;;;;;;5.52;43.43;100715.78;5026496;28;20175;-67
2022/03/07 10:30:08;;;;;;;25.15;15.10;;;;;;;5.82;43.14;100705.94;5036288;28;20381;-67
2022/03/07 10:32:34;;;;;;;26.25;15.15;;;;;;;6.41;41.93;100705.66;5026660;28;20029;-68
2022/03/07 10:34:59;;;;;;;21.80;15.25;;;;;;;6.81;40.70;100706.56;5035450;28;20021;-72
2022/03/07 10:37:33;;;;;;;25.02;14.52;;;;;;;7.09;40.42;100705.59;5038619;28;20029;-72
2022/03/07 10:39:59;;;;;;;23.27;16.08;;;;;;;7.30;39.70;100706.78;5037479;28;20049;-72
2022/03/07 10:42:24;;;;;;;23.25;14.18;;;;;;;7.37;39.17;100697.41;5033458;28;20041;-72
2022/03/07 10:44:50;;;;;;;22.55;15.43;;;;;;;7.40;39.47;100695.38;5042146;28;20034;-72
2022/03/07 10:47:20;;;;;;;22.85;15.05;;;;;;;7.39;39.39;100698.16;5035050;28;20033;-72
2022/03/07 10:49:57;;;;;;;23.23;15.57;;;;;;;7.39;39.82;100687.50;5037105;28;20032;-73
2022/03/07 10:52:23;;;;;;;21.85;14.50;;;;;;;7.31;38.92;100657.78;5035987;28;20036;-73
2022/03/07 10:54:49;;;;;;;24.45;16.08;;;;;;;7.45;39.20;100677.22;5033671;28;20085;-72
2022/03/07 10:57:17;;;;;;;26.77;15.68;;;;;;;7.42;39.19;100668.59;5032433;28;20029;-73
2022/03/07 10:59:44;;;;;;;22.27;15.45;;;;;;;7.43;39.74;100675.63;5036070;28;20112;-72
2022/03/07 11:02:14;;;;;;;25.25;15.70;;;;;;;7.43;39.61;100675.63;5029925;28;20485;-73
2022/03/07 11:04:41;;;;;;;24.50;16.50;;;;;;;7.35;39.42;100670.00;5031402;28;20167;-73
2022/03/07 11:07:08;;;;;;;24.88;15.30;;;;;;;7.23;40.21;100674.34;5029095;28;20337;-67
2022/03/07 11:09:35;;;;;;;25.38;16.60;;;;;;;7.12;39.91;100665.38;5026972;28;20102;-67
2022/03/07 11:12:00;;;;;;;21.20;14.80;;;;;;;7.03;40.21;100661.50;5024576;28;20036;-67